Time;durP1;ratioP1;P1;durP2;ratioP2;P2;SDS_P1;SDS_P2;PMS_P1;PMS_P2;Temp;Humidity;BMP_temperature;BMP_pressure;BME280_temperature;BME280_humidity;BME280_pressure;Samples;Min_cycle;Max_cycle;Signal;HPM_P1;HPM_P2
2023/02/16 00:01:24;;;;;;;1.50;1.38;;;19.40;62.00;;;;;;5051805;28;20029;-68
2023/02/16 00:03:50;;;;;;;2.17;1.83;;;19.30;62.10;;;;;;5034461;28;20491;-68
2023/02/16 00:06:15;;;;;;;3.05;1.80;;;19.30;62.20;;;;;;5050513;28;20040;-68
2023/02/16 00:08:45;;;;;;;2.88;1.60;;;19.30;62.30;;;;;;5050139;28;20025;-68
2023/02/16 00:14:03;;;;;;;2.63;1.70;;;19.20;62.60;;;;;;5051192;28;20053;-68
2023/02/16 00:16:29;;;;;;;3.53;1.50;;;19.20;62.80;;;;;;5050534;28;20022;-68
2023/02/16 00:18:54;;;;;;;4.95;1.50;;;19.20;63.00;;;;;;5051792;28;20025;-68
2023/02/16 00:21:20;;;;;;;1.77;1.52;;;19.20;63.10;;;;;;5051320;28;20053;-68
2023/02/16 00:23:47;;;;;;;2.45;1.30;;;19.20;63.00;;;;;;5051800;28;20048;-68
2023/02/16 00:26:17;;;;;;;2.58;1.60;;;19.20;63.10;;;;;;5051728;28;20052;-68
2023/02/16 00:28:43;;;;;;;1.55;1.45;;;19.10;63.20;;;;;;5034279;28;20115;-68
2023/02/16 00:31:15;;;;;;;2.03;1.55;;;19.10;63.20;;;;;;5031574;28;20548;-68
2023/02/16 00:33:40;;;;;;;2.35;1.63;;;19.10;63.30;;;;;;5030798;28;20018;-68
2023/02/16 00:36:06;;;;;;;1.52;1.42;;;19.10;63.30;;;;;;5034114;28;20087;-68
2023/02/16 00:38:32;;;;;;;1.55;1.30;;;19.10;63.50;;;;;;5034947;28;20071;-68
2023/02/16 00:40:57;;;;;;;4.57;1.42;;;19.10;63.50;;;;;;5035350;28;20029;-68
2023/02/16 00:43:25;;;;;;;1.83;1.40;;;19.00;63.40;;;;;;5033891;28;20036;-68
2023/02/16 00:45:51;;;;;;;1.83;1.40;;;19.00;63.40;;;;;;5034015;28;20056;-68
2023/02/16 00:48:16;;;;;;;1.98;1.52;;;19.00;63.50;;;;;;5039840;28;20052;-68
2023/02/16 00:50:42;;;;;;;2.30;1.30;;;19.00;63.50;;;;;;5053574;28;20033;-68
2023/02/16 00:53:07;;;;;;;2.45;1.60;;;18.90;63.60;;;;;;5054936;28;20032;-68
2023/02/16 00:55:33;;;;;;;2.28;1.60;;;18.90;63.70;;;;;;5054922;28;20533;-68
2023/02/16 00:58:15;;;;;;;1.60;1.30;;;18.90;63.70;;;;;;5053561;28;20045;-68
2023/02/16 01:00:45;;;;;;;3.03;1.50;;;18.90;63.80;;;;;;5053509;28;20028;-68
2023/02/16 01:03:22;;;;;;;2.25;1.38;;;18.90;64.20;;;;;;5037265;28;20025;-68
2023/02/16 01:05:48;;;;;;;4.10;1.58;;;18.90;64.20;;;;;;5053498;28;20124;-68
2023/02/16 01:13:28;;;;;;;4.97;1.40;;;18.80;64.60;;;;;;5036928;28;20033;-68
2023/02/16 01:15:54;;;;;;;2.15;1.58;;;18.80;64.70;;;;;;5036816;28;20028;-68
2023/02/16 01:18:20;;;;;;;1.98;1.30;;;18.80;64.60;;;;;;5054462;28;20095;-68
2023/02/16 01:20:46;;;;;;;4.35;1.40;;;18.80;64.60;;;;;;5036762;28;20017;-68
2023/02/16 01:23:12;;;;;;;1.88;1.42;;;18.80;64.70;;;;;;5054460;28;20051;-68
2023/02/16 01:25:37;;;;;;;2.67;1.33;;;18.80;64.70;;;;;;5053076;28;20025;-68
2023/02/16 01:28:09;;;;;;;4.85;1.60;;;18.80;64.70;;;;;;5042436;28;20056;-68
2023/02/16 01:30:34;;;;;;;2.10;1.42;;;18.80;64.70;;;;;;5033059;28;20479;-68
2023/02/16 01:33:00;;;;;;;3.72;1.42;;;18.80;64.70;;;;;;5034472;28;20024;-68
2023/02/16 01:35:31;;;;;;;2.78;1.10;;;18.80;64.70;;;;;;5033998;28;20022;-68
2023/02/16 01:37:57;;;;;;;2.28;1.20;;;18.80;64.90;;;;;;5016663;28;20025;-68
2023/02/16 01:40:31;;;;;;;1.95;1.40;;;18.70;64.80;;;;;;5034101;28;20403;-68
2023/02/16 01:43:17;;;;;;;2.17;1.38;;;18.70;64.80;;;;;;5034287;28;20064;-68
2023/02/16 01:45:45;;;;;;;1.80;1.23;;;18.70;64.80;;;;;;5018484;28;20026;-68
2023/02/16 01:48:21;;;;;;;1.48;1.15;;;18.70;64.80;;;;;;5021511;28;20021;-68
2023/02/16 01:51:06;;;;;;;2.05;1.25;;;18.70;64.90;;;;;;5036408;28;20033;-68
2023/02/16 01:53:52;;;;;;;1.63;1.30;;;18.60;64.80;;;;;;5053678;28;20105;-67
2023/02/16 01:56:48;;;;;;;4.15;1.63;;;18.70;64.80;;;;;;5052857;28;20025;-68
2023/02/16 01:59:41;;;;;;;2.63;1.30;;;18.60;64.90;;;;;;5038238;28;20514;-68
2023/02/16 02:02:36;;;;;;;2.40;1.07;;;18.60;64.90;;;;;;5052513;28;20041;-68
2023/02/16 02:05:34;;;;;;;2.72;1.30;;;18.60;65.00;;;;;;5052035;28;20033;-68
2023/02/16 02:08:09;;;;;;;2.03;1.40;;;18.60;65.00;;;;;;5053047;28;20506;-68
2023/02/16 02:10:48;;;;;;;1.73;1.02;;;18.60;65.20;;;;;;5033248;28;20152;-68
2023/02/16 02:13:19;;;;;;;6.10;1.42;;;18.60;65.20;;;;;;5032313;28;20018;-67
2023/02/16 02:15:44;;;;;;;1.60;1.48;;;18.50;65.10;;;;;;5032132;28;20056;-68
2023/02/16 02:18:10;;;;;;;1.95;1.20;;;18.50;65.20;;;;;;5033291;28;20503;-68
2023/02/16 02:24:22;;;;;;;1.25;1.15;;;18.50;65.20;;;;;;5031316;28;20546;-68
2023/02/16 02:26:48;;;;;;;1.75;1.40;;;18.50;65.40;;;;;;5031051;28;20034;-68
2023/02/16 02:29:46;;;;;;;1.92;1.25;;;18.50;65.30;;;;;;5030846;28;20037;-68
2023/02/16 02:32:36;;;;;;;2.50;1.00;;;18.40;65.30;;;;;;4952847;29;20135;-68
2023/02/16 02:35:28;;;;;;;1.67;1.40;;;18.50;65.40;;;;;;4952920;29;20050;-67
2023/02/16 02:37:58;;;;;;;1.52;1.42;;;18.40;65.30;;;;;;4952656;29;20082;-68
2023/02/16 02:40:32;;;;;;;1.48;1.10;;;18.40;65.30;;;;;;4952871;29;20031;-68
2023/02/16 02:43:24;;;;;;;2.30;1.15;;;18.40;65.30;;;;;;4953005;29;20093;-68
2023/02/16 02:45:54;;;;;;;5.17;1.33;;;18.40;65.60;;;;;;4952828;29;20262;-68
2023/02/16 02:48:19;;;;;;;2.22;1.17;;;18.40;65.60;;;;;;4955084;28;20031;-68
2023/02/16 03:02:38;;;;;;;2.45;0.90;;;18.30;66.90;;;;;;4925436;29;20119;-68
2023/02/16 03:05:04;;;;;;;1.52;1.13;;;18.30;65.90;;;;;;4920692;29;20106;-68
2023/02/16 03:07:48;;;;;;;2.42;1.30;;;18.30;66.10;;;;;;4952234;29;20490;-68
2023/02/16 03:13:41;;;;;;;2.40;0.93;;;18.30;66.10;;;;;;5031569;28;20032;-68
2023/02/16 03:16:28;;;;;;;1.88;1.30;;;18.30;66.20;;;;;;5030979;28;20109;-68
2023/02/16 03:29:56;;;;;;;3.03;0.90;;;18.30;66.80;;;;;;5016378;28;20091;-68
2023/02/16 03:32:21;;;;;;;4.63;1.00;;;18.20;66.80;;;;;;5013854;28;20025;-68
2023/02/16 03:34:47;;;;;;;2.10;1.10;;;18.20;66.80;;;;;;5030000;28;20041;-68
2023/02/16 03:37:13;;;;;;;1.35;1.20;;;18.20;67.90;;;;;;5013727;28;20026;-68
2023/02/16 03:42:51;;;;;;;1.40;0.95;;;18.20;67.00;;;;;;4941031;29;20036;-68
2023/02/16 03:45:18;;;;;;;1.48;1.13;;;18.20;67.00;;;;;;4951794;29;20035;-68
2023/02/16 03:47:43;;;;;;;2.10;0.95;;;18.20;67.20;;;;;;4953164;28;20130;-68
2023/02/16 03:50:09;;;;;;;1.10;0.80;;;18.20;67.20;;;;;;4966809;28;20118;-68
2023/02/16 03:52:35;;;;;;;1.75;0.93;;;18.20;67.20;;;;;;4955206;28;20401;-68
2023/02/16 03:55:00;;;;;;;1.52;1.00;;;18.10;67.10;;;;;;4971313;28;20034;-68
2023/02/16 03:57:26;;;;;;;1.67;1.13;;;18.10;67.20;;;;;;4956299;28;20078;-68
2023/02/16 03:59:54;;;;;;;2.08;1.20;;;18.10;67.30;;;;;;4951593;29;20393;-68
2023/02/16 04:02:20;;;;;;;0.95;0.73;;;18.10;67.20;;;;;;4969174;28;20039;-68
2023/02/16 04:04:46;;;;;;;1.23;1.13;;;18.10;67.20;;;;;;4970269;28;20068;-68
2023/02/16 04:07:11;;;;;;;0.82;0.70;;;18.10;67.30;;;;;;4935999;29;20039;-68
2023/02/16 04:09:37;;;;;;;1.65;0.98;;;18.10;67.40;;;;;;4952100;28;20031;-68
2023/02/16 04:14:47;;;;;;;1.75;1.10;;;18.10;67.40;;;;;;5035436;28;20064;-68
2023/02/16 04:17:13;;;;;;;2.05;1.10;;;18.00;67.40;;;;;;5035659;28;20049;-68
2023/02/16 04:19:38;;;;;;;1.70;1.20;;;18.10;67.40;;;;;;5035492;28;20033;-68
2023/02/16 04:22:04;;;;;;;2.75;0.80;;;18.00;67.40;;;;;;5035686;28;20048;-68
2023/02/16 04:24:29;;;;;;;1.23;1.02;;;18.00;67.50;;;;;;5035652;28;20051;-68
2023/02/16 04:26:55;;;;;;;1.90;1.02;;;18.00;67.40;;;;;;5035398;28;20079;-68
2023/02/16 04:29:21;;;;;;;1.10;1.00;;;18.00;67.50;;;;;;5035287;28;20391;-68
2023/02/16 04:31:46;;;;;;;0.80;0.80;;;18.00;67.60;;;;;;5035276;28;20380;-68
2023/02/16 04:34:12;;;;;;;0.80;0.80;;;18.00;67.60;;;;;;5035521;28;20029;-68
2023/02/16 04:36:38;;;;;;;1.90;1.00;;;18.00;67.60;;;;;;5035343;28;20495;-68
2023/02/16 04:39:04;;;;;;;1.70;1.08;;;18.00;67.70;;;;;;5035307;28;20104;-68
2023/02/16 04:41:29;;;;;;;0.90;0.70;;;18.00;67.70;;;;;;5035198;28;20033;-68
2023/02/16 04:43:55;;;;;;;2.05;0.80;;;18.00;67.70;;;;;;5033795;28;20061;-68
2023/02/16 04:46:20;;;;;;;0.98;0.98;;;18.00;67.80;;;;;;5035331;28;20108;-68
2023/02/16 04:48:46;;;;;;;1.35;0.80;;;18.00;67.80;;;;;;5040428;28;20030;-68
2023/02/16 04:51:12;;;;;;;8.35;0.90;;;18.00;67.80;;;;;;5035125;28;20021;-68
2023/02/16 04:53:37;;;;;;;0.90;0.90;;;18.00;67.90;;;;;;5034997;28;20022;-68
2023/02/16 04:56:03;;;;;;;2.72;1.10;;;18.00;68.90;;;;;;5035007;28;20014;-68
2023/02/16 04:58:29;;;;;;;1.25;0.80;;;18.00;68.00;;;;;;5034806;28;20083;-67
2023/02/16 05:00:54;;;;;;;1.13;0.88;;;17.90;68.10;;;;;;5035170;28;20033;-68
2023/02/16 05:03:20;;;;;;;2.47;0.80;;;17.90;68.20;;;;;;5050213;28;20033;-68
2023/02/16 05:05:46;;;;;;;1.10;0.77;;;17.90;68.10;;;;;;5034670;28;20052;-68
2023/02/16 05:08:11;;;;;;;2.28;1.00;;;17.90;68.30;;;;;;5050002;28;20057;-68
2023/02/16 05:10:37;;;;;;;5.07;0.93;;;17.90;68.30;;;;;;5034705;28;20032;-68
2023/02/16 05:15:46;;;;;;;1.80;1.00;;;18.00;68.10;;;;;;5033435;28;20439;-68
2023/02/16 05:18:12;;;;;;;1.75;0.60;;;18.00;68.20;;;;;;5034667;28;20060;-68
2023/02/16 05:23:21;;;;;;;2.08;0.98;;;17.90;68.30;;;;;;5034872;28;20080;-68
2023/02/16 05:25:47;;;;;;;2.85;1.00;;;17.90;68.20;;;;;;5033012;28;20049;-68
2023/02/16 05:28:13;;;;;;;5.32;1.25;;;17.90;68.40;;;;;;5034242;28;20046;-68
2023/02/16 05:30:38;;;;;;;1.98;0.80;;;17.90;68.40;;;;;;5034118;28;20056;-68
2023/02/16 05:33:04;;;;;;;0.70;0.65;;;17.90;68.50;;;;;;5039213;28;20380;-68
2023/02/16 05:35:29;;;;;;;5.10;0.95;;;17.90;68.50;;;;;;5041120;28;20028;-68
2023/02/16 05:37:55;;;;;;;2.15;0.70;;;17.90;68.40;;;;;;5034636;28;20026;-68
2023/02/16 05:40:21;;;;;;;2.10;0.65;;;17.90;68.50;;;;;;5034574;28;20032;-68
2023/02/16 05:42:51;;;;;;;0.70;0.70;;;17.90;68.40;;;;;;5034648;28;20488;-67
2023/02/16 05:45:16;;;;;;;9.40;1.33;;;17.90;68.50;;;;;;5033399;28;20021;-67
2023/02/16 05:47:42;;;;;;;1.23;0.75;;;17.90;68.60;;;;;;5035704;28;20519;-67
2023/02/16 05:50:08;;;;;;;4.10;1.35;;;17.90;68.60;;;;;;5054453;28;20063;-67
2023/02/16 05:52:33;;;;;;;1.73;0.98;;;17.80;68.50;;;;;;5054496;28;20021;-67
2023/02/16 05:54:59;;;;;;;4.05;0.90;;;17.80;68.60;;;;;;5054189;28;20020;-68
2023/02/16 05:57:25;;;;;;;0.85;0.70;;;17.80;68.60;;;;;;5054400;28;20017;-68
2023/02/16 05:59:50;;;;;;;3.15;0.52;;;17.80;68.70;;;;;;5054093;28;20032;-67
2023/02/16 06:02:16;;;;;;;7.78;1.00;;;17.80;68.60;;;;;;5054287;28;20106;-68
2023/02/16 06:04:41;;;;;;;1.08;0.90;;;17.80;68.70;;;;;;5054077;28;20705;-68
2023/02/16 06:07:07;;;;;;;2.33;0.80;;;17.80;68.60;;;;;;5054245;28;20036;-67
2023/02/16 06:09:33;;;;;;;1.67;0.70;;;17.80;68.70;;;;;;5042442;28;20040;-68
2023/02/16 06:11:58;;;;;;;1.48;0.73;;;17.80;68.70;;;;;;5034002;28;20542;-67
2023/02/16 06:14:24;;;;;;;4.35;0.88;;;17.80;68.80;;;;;;5034082;28;20014;-67
2023/02/16 06:16:52;;;;;;;0.88;0.88;;;17.80;68.70;;;;;;5034030;28;20029;-67
2023/02/16 06:19:18;;;;;;;0.70;0.70;;;17.70;68.70;;;;;;5034052;28;20022;-67
2023/02/16 06:21:44;;;;;;;2.60;0.90;;;17.70;68.70;;;;;;5032615;28;20026;-68
2023/02/16 06:24:10;;;;;;;2.22;0.80;;;17.80;68.80;;;;;;5033822;28;20033;-68
2023/02/16 06:26:36;;;;;;;1.83;0.70;;;17.70;68.70;;;;;;5032676;28;20029;-68
2023/02/16 06:29:02;;;;;;;1.65;0.70;;;17.70;68.70;;;;;;5032472;28;20050;-68
2023/02/16 06:31:27;;;;;;;3.35;0.70;;;17.70;68.70;;;;;;5033812;28;20072;-68
2023/02/16 06:33:55;;;;;;;2.25;0.93;;;17.70;68.50;;;;;;5032739;28;20021;-68
2023/02/16 06:36:21;;;;;;;2.20;0.60;;;17.70;68.80;;;;;;5032644;28;20051;-68
2023/02/16 06:38:47;;;;;;;0.75;0.70;;;17.70;68.80;;;;;;5032055;28;20029;-68
2023/02/16 06:41:12;;;;;;;3.90;0.60;;;17.70;68.70;;;;;;5032000;28;20033;-68
2023/02/16 06:43:38;;;;;;;2.28;0.60;;;17.70;68.50;;;;;;5032547;28;20025;-68
2023/02/16 06:46:04;;;;;;;1.02;0.38;;;17.70;68.00;;;;;;5033540;28;20034;-68
2023/02/16 06:48:29;;;;;;;0.30;0.30;;;17.70;67.20;;;;;;5039805;28;20025;-68
2023/02/16 06:50:55;;;;;;;1.33;0.40;;;17.70;67.00;;;;;;5053222;28;20021;-68
2023/02/16 06:53:20;;;;;;;2.83;0.55;;;17.70;66.70;;;;;;5053264;28;20024;-68
2023/02/16 06:55:48;;;;;;;2.10;0.50;;;17.70;66.60;;;;;;5033859;28;20099;-68
2023/02/16 06:58:14;;;;;;;3.03;0.40;;;17.70;66.40;;;;;;5050075;28;20040;-68
2023/02/16 07:00:40;;;;;;;2.42;0.43;;;17.70;66.30;;;;;;5051661;28;20040;-68
2023/02/16 07:03:05;;;;;;;0.80;0.50;;;17.70;66.20;;;;;;5051617;28;20108;-68
2023/02/16 07:05:31;;;;;;;0.30;0.30;;;17.70;66.10;;;;;;5053148;28;20033;-68
2023/02/16 07:07:57;;;;;;;0.30;0.30;;;17.70;66.10;;;;;;5052885;28;20060;-68
2023/02/16 07:10:22;;;;;;;1.55;0.60;;;17.70;65.90;;;;;;5034938;28;20511;-68
2023/02/16 07:12:48;;;;;;;0.85;0.35;;;17.70;65.90;;;;;;5031884;28;20048;-69
2023/02/16 07:15:13;;;;;;;3.47;0.63;;;17.70;65.70;;;;;;5032771;28;20049;-68
2023/02/16 07:17:39;;;;;;;3.45;0.52;;;17.70;65.90;;;;;;5031103;28;20391;-68
2023/02/16 07:20:05;;;;;;;2.13;0.70;;;17.70;66.40;;;;;;5031256;28;20029;-68
2023/02/16 07:22:31;;;;;;;5.95;0.60;;;17.70;66.70;;;;;;5032127;28;20036;-68
2023/02/16 07:24:57;;;;;;;1.55;0.70;;;17.70;67.00;;;;;;5031033;28;20104;-68
2023/02/16 07:27:24;;;;;;;3.40;0.55;;;17.70;67.10;;;;;;5029518;28;20056;-68
2023/02/16 07:29:49;;;;;;;5.60;0.73;;;17.80;67.20;;;;;;5034380;28;20395;-68
2023/02/16 07:32:15;;;;;;;5.28;0.85;;;17.80;67.20;;;;;;5037506;28;20027;-68
2023/02/16 07:34:40;;;;;;;2.72;0.60;;;17.80;67.10;;;;;;5046020;28;20017;-68
2023/02/16 07:37:06;;;;;;;1.35;0.55;;;17.80;67.10;;;;;;5049799;28;20086;-68
2023/02/16 07:39:32;;;;;;;2.17;0.60;;;17.80;67.00;;;;;;5031113;28;20488;-68
2023/02/16 07:41:58;;;;;;;1.85;0.50;;;17.70;66.90;;;;;;5030975;28;20057;-68
2023/02/16 07:44:24;;;;;;;2.90;0.43;;;17.80;66.90;;;;;;5032480;28;20048;-68
2023/02/16 07:46:49;;;;;;;3.42;0.55;;;17.80;66.80;;;;;;5046999;28;20419;-68
2023/02/16 07:49:15;;;;;;;2.05;0.80;;;17.80;66.70;;;;;;5056280;28;20082;-68
2023/02/16 07:51:41;;;;;;;4.20;0.65;;;17.80;66.70;;;;;;5054970;28;20025;-68
2023/02/16 07:54:06;;;;;;;2.42;0.60;;;17.80;66.70;;;;;;5055973;28;20024;-68
2023/02/16 07:56:32;;;;;;;2.83;0.80;;;17.80;66.60;;;;;;5056044;28;20021;-68
2023/02/16 07:58:59;;;;;;;1.75;0.35;;;17.80;66.60;;;;;;5056042;28;20518;-68
2023/02/16 08:01:24;;;;;;;1.65;0.30;;;17.80;66.60;;;;;;5054901;28;20059;-68
2023/02/16 08:03:50;;;;;;;2.63;0.40;;;17.80;66.50;;;;;;5045541;28;20052;-68
2023/02/16 08:06:16;;;;;;;2.25;0.40;;;17.80;66.50;;;;;;5035709;28;20033;-68
2023/02/16 08:08:42;;;;;;;2.30;0.47;;;17.80;66.50;;;;;;5034663;28;20060;-68
2023/02/16 08:11:11;;;;;;;0.80;0.43;;;17.80;66.50;;;;;;5035908;28;20392;-68
2023/02/16 08:13:37;;;;;;;2.17;0.57;;;17.80;66.50;;;;;;5034905;28;20358;-68
2023/02/16 08:16:13;;;;;;;1.98;0.50;;;17.70;66.40;;;;;;5036130;28;20022;-68
2023/02/16 08:18:40;;;;;;;0.70;0.30;;;17.80;66.50;;;;;;5035654;28;20017;-68
2023/02/16 08:21:16;;;;;;;1.92;0.60;;;17.80;66.50;;;;;;5034343;28;20026;-68
2023/02/16 08:23:48;;;;;;;1.98;0.50;;;17.80;66.50;;;;;;5034612;28;20104;-68
2023/02/16 08:26:16;;;;;;;5.18;0.50;;;17.80;66.50;;;;;;5035699;28;20101;-68
2023/02/16 08:28:44;;;;;;;1.13;0.50;;;17.80;66.50;;;;;;5034216;28;20033;-68
2023/02/16 08:31:14;;;;;;;0.90;0.45;;;17.80;66.60;;;;;;5034254;28;20488;-68
2023/02/16 08:33:40;;;;;;;1.30;0.32;;;17.70;66.50;;;;;;5034290;28;20423;-68
2023/02/16 08:36:09;;;;;;;2.30;0.55;;;17.80;66.60;;;;;;5033944;28;20046;-68
2023/02/16 08:38:35;;;;;;;1.88;0.55;;;17.80;66.70;;;;;;5050611;28;20025;-68
2023/02/16 08:41:01;;;;;;;1.38;0.40;;;17.80;66.60;;;;;;5054040;28;20043;-68
2023/02/16 08:43:27;;;;;;;0.52;0.32;;;17.80;66.70;;;;;;5055362;28;20075;-68
2023/02/16 08:45:52;;;;;;;0.55;0.35;;;17.70;66.60;;;;;;5055046;28;20397;-68
2023/02/16 08:48:18;;;;;;;1.48;0.30;;;17.70;66.60;;;;;;5054036;28;20021;-68
2023/02/16 08:50:52;;;;;;;1.08;0.45;;;17.80;66.70;;;;;;5054915;28;20033;-68
2023/02/16 08:53:20;;;;;;;1.33;0.50;;;17.80;66.70;;;;;;5055069;28;20021;-68
2023/02/16 08:55:55;;;;;;;0.40;0.20;;;17.70;66.60;;;;;;5054408;28;20033;-68
2023/02/16 08:58:21;;;;;;;0.45;0.20;;;17.80;66.60;;;;;;5055022;28;20017;-68
2023/02/16 09:00:46;;;;;;;0.35;0.25;;;17.70;66.60;;;;;;5053748;28;20029;-68
2023/02/16 09:03:12;;;;;;;0.68;0.30;;;17.70;66.60;;;;;;5054698;28;20021;-68
2023/02/16 09:05:38;;;;;;;0.50;0.25;;;17.80;66.60;;;;;;5054948;28;20031;-68
2023/02/16 09:08:04;;;;;;;0.65;0.30;;;17.80;66.70;;;;;;5053501;28;20079;-68
2023/02/16 09:10:30;;;;;;;1.40;0.50;;;17.80;66.60;;;;;;5035563;28;20033;-68
2023/02/16 09:12:56;;;;;;;0.52;0.40;;;17.80;66.60;;;;;;5034747;28;20029;-68
2023/02/16 09:15:22;;;;;;;0.52;0.10;;;17.70;66.70;;;;;;5034613;28;20053;-68
2023/02/16 09:17:48;;;;;;;0.43;0.30;;;17.70;66.60;;;;;;5034668;28;20060;-68
2023/02/16 09:20:14;;;;;;;0.85;0.30;;;17.70;66.60;;;;;;5034677;28;20037;-68
2023/02/16 09:22:43;;;;;;;1.00;0.20;;;17.70;66.60;;;;;;5034617;28;20032;-68
2023/02/16 09:25:10;;;;;;;0.65;0.30;;;17.70;66.50;;;;;;5033307;28;20442;-68
2023/02/16 09:27:35;;;;;;;1.95;0.30;;;17.70;66.50;;;;;;5034329;28;20041;-68
2023/02/16 09:30:02;;;;;;;0.43;0.15;;;17.70;66.50;;;;;;5034507;28;20075;-68
2023/02/16 09:32:28;;;;;;;0.47;0.30;;;17.70;66.50;;;;;;5033203;28;20017;-68
2023/02/16 09:34:54;;;;;;;3.00;0.25;;;17.70;66.40;;;;;;5033171;28;20026;-68
2023/02/16 09:37:20;;;;;;;0.68;0.30;;;17.70;66.40;;;;;;5038035;28;20376;-68
2023/02/16 09:39:46;;;;;;;0.40;0.30;;;17.70;66.40;;;;;;5054209;28;20118;-68
2023/02/16 09:42:24;;;;;;;0.47;0.22;;;17.70;66.40;;;;;;5052832;28;20155;-68
2023/02/16 09:44:59;;;;;;;1.10;0.30;;;17.70;66.30;;;;;;5052779;28;20096;-68
2023/02/16 09:47:29;;;;;;;0.28;0.25;;;17.70;66.40;;;;;;5035884;28;20440;-68
2023/02/16 09:49:59;;;;;;;1.35;0.30;;;17.70;66.30;;;;;;5052893;28;20025;-68
2023/02/16 09:52:39;;;;;;;0.47;0.20;;;17.70;66.30;;;;;;5036752;28;20021;-68
2023/02/16 09:55:15;;;;;;;0.57;0.30;;;17.70;66.30;;;;;;5052732;28;20057;-68
2023/02/16 09:57:54;;;;;;;0.28;0.25;;;17.70;66.30;;;;;;5036431;28;20035;-68
2023/02/16 10:00:32;;;;;;;0.38;0.15;;;17.70;66.30;;;;;;5052637;28;20399;-68
2023/02/16 10:03:36;;;;;;;1.77;0.50;;;17.70;66.20;;;;;;5053590;28;20021;-68
2023/02/16 10:06:26;;;;;;;0.35;0.20;;;17.70;66.30;;;;;;5035652;28;20399;-68
2023/02/16 10:08:56;;;;;;;0.28;0.17;;;17.70;66.20;;;;;;5045830;28;20439;-68
2023/02/16 10:11:47;;;;;;;0.10;0.10;;;17.70;66.20;;;;;;5032564;28;20021;-68
2023/02/16 10:14:43;;;;;;;0.32;0.15;;;17.70;66.20;;;;;;5032646;28;20476;-68
2023/02/16 10:17:14;;;;;;;0.13;0.10;;;17.70;66.20;;;;;;5032080;28;20104;-68
2023/02/16 10:19:42;;;;;;;1.23;0.20;;;17.70;66.20;;;;;;5033807;28;20040;-68
2023/02/16 10:22:12;;;;;;;0.38;0.15;;;17.70;66.20;;;;;;5032222;28;20496;-68
2023/02/16 10:24:51;;;;;;;0.20;0.17;;;17.70;66.20;;;;;;5032328;28;20036;-68
2023/02/16 10:27:17;;;;;;;0.30;0.20;;;17.70;66.10;;;;;;5031969;28;20045;-68
2023/02/16 10:29:42;;;;;;;0.80;0.20;;;17.70;66.10;;;;;;5032141;28;20028;-68
2023/02/16 10:32:17;;;;;;;1.45;0.10;;;17.70;66.10;;;;;;5033097;28;20029;-68
2023/02/16 10:34:46;;;;;;;0.17;0.10;;;17.70;66.10;;;;;;5032107;28;20018;-68
2023/02/16 10:37:18;;;;;;;0.40;0.10;;;17.70;66.10;;;;;;5036607;28;20018;-68
2023/02/16 10:39:52;;;;;;;0.63;0.20;;;17.70;66.10;;;;;;5035805;28;20139;-68
2023/02/16 10:42:42;;;;;;;0.50;0.20;;;17.70;66.10;;;;;;5051888;28;20047;-68
2023/02/16 10:45:22;;;;;;;0.10;0.10;;;17.70;66.10;;;;;;5052977;28;20104;-68
2023/02/16 10:47:47;;;;;;;0.20;0.20;;;17.70;66.10;;;;;;5035793;28;20067;-69
2023/02/16 10:50:25;;;;;;;0.20;0.10;;;17.70;66.10;;;;;;5052925;28;20053;-68
2023/02/16 10:52:53;;;;;;;0.40;0.10;;;17.70;66.10;;;;;;5035895;28;20024;-68
2023/02/16 10:55:18;;;;;;;0.52;0.40;;;17.70;66.10;;;;;;5035195;28;20028;-68
2023/02/16 10:57:49;;;;;;;0.30;0.10;;;17.70;66.10;;;;;;5052815;28;20025;-68
2023/02/16 11:00:16;;;;;;;0.65;0.17;;;17.70;66.10;;;;;;5051351;28;20024;-68
2023/02/16 11:02:46;;;;;;;0.73;0.20;;;17.70;66.10;;;;;;5034945;28;20104;-69
2023/02/16 11:05:25;;;;;;;0.32;0.20;;;17.70;66.00;;;;;;5035414;28;20491;-68
2023/02/16 11:08:00;;;;;;;0.40;0.28;;;17.70;66.00;;;;;;5052487;28;20037;-68
2023/02/16 11:10:47;;;;;;;0.32;0.10;;;17.70;66.00;;;;;;5016888;28;20017;-68
2023/02/16 11:13:25;;;;;;;0.20;0.00;;;17.70;66.00;;;;;;5031141;28;20029;-68
2023/02/16 11:15:53;;;;;;;0.10;0.10;;;17.70;66.00;;;;;;5031348;28;20387;-68
2023/02/16 11:18:48;;;;;;;0.20;0.10;;;17.70;66.00;;;;;;5031207;28;20037;-68
2023/02/16 11:21:14;;;;;;;0.30;0.20;;;17.70;66.00;;;;;;5031117;28;20028;-68
2023/02/16 11:23:41;;;;;;;0.90;0.15;;;17.70;66.00;;;;;;5032547;28;20034;-68
2023/02/16 11:26:10;;;;;;;0.30;0.10;;;17.70;66.00;;;;;;5031178;28;20558;-68
2023/02/16 11:28:43;;;;;;;0.35;0.10;;;17.60;66.00;;;;;;5031811;28;20492;-68
2023/02/16 11:31:24;;;;;;;0.20;0.10;;;17.70;66.00;;;;;;5031184;28;20052;-68
2023/02/16 11:33:57;;;;;;;0.43;0.15;;;17.70;66.00;;;;;;5032384;28;20029;-68
2023/02/16 11:36:44;;;;;;;0.20;0.20;;;17.70;66.00;;;;;;5031263;28;20104;-69
2023/02/16 11:39:12;;;;;;;0.10;0.10;;;17.70;66.00;;;;;;5031233;28;20030;-69
2023/02/16 11:41:47;;;;;;;0.20;0.20;;;17.70;66.00;;;;;;5032313;28;20491;-68
2023/02/16 11:44:28;;;;;;;0.45;0.10;;;17.70;66.00;;;;;;5031003;28;20028;-68
2023/02/16 11:46:55;;;;;;;0.10;0.10;;;17.70;65.90;;;;;;5015116;28;20114;-69
2023/02/16 11:49:38;;;;;;;0.32;0.00;;;17.70;65.90;;;;;;5031001;28;20029;-68
2023/02/16 11:52:22;;;;;;;0.28;0.10;;;17.70;65.90;;;;;;5031031;28;20021;-68
2023/02/16 11:54:49;;;;;;;0.20;0.17;;;17.70;66.00;;;;;;5032110;28;20523;-68
2023/02/16 11:57:24;;;;;;;0.10;0.10;;;17.70;66.00;;;;;;5014247;28;20451;-68
2023/02/16 11:59:50;;;;;;;0.10;0.10;;;17.70;66.00;;;;;;5031123;28;20026;-68
2023/02/16 12:02:22;;;;;;;0.10;0.10;;;17.60;65.90;;;;;;5030905;28;20108;-68
2023/02/16 12:05:09;;;;;;;0.30;0.00;;;17.60;65.90;;;;;;5030855;28;20034;-68
2023/02/16 12:08:13;;;;;;;0.13;0.13;;;17.60;65.90;;;;;;5032034;28;20084;-68
2023/02/16 12:10:41;;;;;;;0.00;0.00;;;17.70;65.90;;;;;;5032059;28;20037;-68
2023/02/16 12:13:14;;;;;;;0.20;0.10;;;17.70;65.90;;;;;;5031646;28;20017;-68
2023/02/16 12:15:41;;;;;;;0.32;0.17;;;17.70;65.90;;;;;;5030757;28;20026;-68
2023/02/16 12:18:28;;;;;;;0.22;0.10;;;17.70;65.90;;;;;;5031913;28;20087;-68
2023/02/16 12:21:23;;;;;;;0.00;0.00;;;17.70;65.90;;;;;;5032263;28;20048;-69
2023/02/16 12:24:01;;;;;;;0.05;0.03;;;17.70;66.00;;;;;;5030824;28;20032;-68
2023/02/16 12:26:40;;;;;;;0.10;0.10;;;17.60;65.90;;;;;;5030465;28;20029;-69
2023/02/16 12:29:05;;;;;;;0.05;0.05;;;17.60;65.90;;;;;;5030366;28;20041;-68
2023/02/16 12:31:52;;;;;;;0.10;0.00;;;17.60;65.90;;;;;;5033500;28;20411;-68
2023/02/16 12:34:24;;;;;;;0.20;0.15;;;17.70;66.00;;;;;;5034278;28;20026;-68
2023/02/16 12:36:52;;;;;;;0.10;0.10;;;17.70;66.00;;;;;;5036347;28;20021;-68
2023/02/16 12:39:41;;;;;;;0.10;0.10;;;17.60;65.90;;;;;;5054076;28;20483;-68
2023/02/16 12:42:28;;;;;;;0.00;0.00;;;17.70;67.00;;;;;;5053945;28;20026;-68
2023/02/16 12:45:21;;;;;;;0.00;0.00;;;17.60;65.90;;;;;;5055518;28;20040;-68
2023/02/16 12:48:19;;;;;;;0.20;0.20;;;17.60;65.90;;;;;;5053877;28;20411;-68
2023/02/16 12:50:44;;;;;;;0.10;0.10;;;17.60;65.90;;;;;;5040446;28;20029;-68
2023/02/16 12:53:13;;;;;;;0.40;0.20;;;17.60;65.90;;;;;;5037391;28;20083;-68
2023/02/16 12:55:44;;;;;;;0.00;0.00;;;17.60;65.90;;;;;;5054830;28;20033;-68
2023/02/16 12:58:15;;;;;;;0.20;0.10;;;17.70;66.00;;;;;;5053874;28;20056;-68
2023/02/16 13:01:01;;;;;;;0.15;0.00;;;17.60;65.90;;;;;;5054900;28;20024;-68
2023/02/16 13:03:45;;;;;;;0.00;0.00;;;17.60;65.90;;;;;;5053740;28;20491;-68
2023/02/16 13:06:39;;;;;;;0.10;0.10;;;17.60;65.90;;;;;;5054991;28;20029;-68
2023/02/16 13:09:32;;;;;;;0.00;0.00;;;17.60;65.80;;;;;;5038350;28;20051;-69
2023/02/16 13:12:11;;;;;;;0.10;0.03;;;17.60;65.90;;;;;;5033617;28;20484;-68
2023/02/16 13:14:40;;;;;;;0.13;0.05;;;17.70;66.00;;;;;;5016949;28;20396;-68
2023/02/16 13:17:12;;;;;;;0.00;0.00;;;17.70;65.90;;;;;;5033705;28;20036;-68
2023/02/16 13:19:39;;;;;;;0.30;0.10;;;17.60;65.90;;;;;;5033571;28;20028;-68
2023/02/16 13:22:38;;;;;;;0.10;0.10;;;17.60;65.90;;;;;;5033457;28;20037;-68
2023/02/16 13:25:25;;;;;;;0.00;0.00;;;17.60;65.90;;;;;;5034437;28;20025;-69
2023/02/16 13:28:22;;;;;;;0.00;0.00;;;17.70;65.90;;;;;;5033053;28;20061;-68
2023/02/16 13:31:16;;;;;;;0.10;0.10;;;17.70;65.90;;;;;;5034450;28;20480;-68
2023/02/16 13:34:02;;;;;;;0.00;0.00;;;17.70;66.00;;;;;;5034548;28;20369;-68
2023/02/16 13:37:03;;;;;;;0.00;0.00;;;17.70;65.90;;;;;;5033264;28;20026;-68
2023/02/16 13:39:47;;;;;;;0.00;0.00;;;17.60;65.90;;;;;;5051616;28;20025;-68
2023/02/16 13:42:38;;;;;;;0.00;0.00;;;17.70;66.00;;;;;;5067250;28;20065;-68
2023/02/16 13:45:20;;;;;;;0.10;0.00;;;17.70;65.90;;;;;;5068877;28;20083;-68
2023/02/16 13:47:46;;;;;;;0.00;0.00;;;17.70;65.90;;;;;;5067150;28;20044;-68
2023/02/16 13:50:28;;;;;;;0.00;0.00;;;17.60;65.90;;;;;;5068654;28;20040;-69
2023/02/16 13:53:30;;;;;;;0.13;0.00;;;17.70;65.90;;;;;;5051261;28;20024;-68
2023/02/16 13:56:16;;;;;;;0.05;0.05;;;17.70;66.00;;;;;;5004314;28;20038;-68
2023/02/16 13:58:42;;;;;;;0.10;0.00;;;17.70;65.90;;;;;;4992587;28;20043;-68